createdAt,value
2023-03-06T00:04:29.270Z,97466.84
2023-03-06T00:09:31.318Z,97463.06
2023-03-06T00:14:33.349Z,97459.34
2023-03-06T00:19:35.365Z,97461.31
2023-03-06T00:24:37.410Z,97466.50
2023-03-06T00:29:39.402Z,97462.75
2023-03-06T00:34:41.476Z,97465.22
2023-03-06T00:39:43.497Z,97464.41
2023-03-06T00:44:46.313Z,97465.06
2023-03-06T00:49:48.378Z,97461.28
2023-03-06T00:54:50.534Z,97470.09
2023-03-06T00:59:52.586Z,97470.72
2023-03-06T01:04:56.160Z,97471.25
2023-03-06T01:09:58.199Z,97471.25
2023-03-06T01:15:00.307Z,97471.09
2023-03-06T01:20:06.225Z,97474.81
2023-03-06T01:25:09.330Z,97476.78
2023-03-06T01:30:12.075Z,97471.06
2023-03-06T01:35:14.363Z,97466.34
2023-03-06T01:40:16.607Z,97468.66
2023-03-06T01:45:19.524Z,97464.25
2023-03-06T01:50:21.851Z,97471.56
2023-03-06T01:55:30.307Z,97475.81
2023-03-06T02:00:32.384Z,97474.50
2023-03-06T02:05:35.058Z,97470.56
2023-03-06T02:10:37.170Z,97483.41
2023-03-06T02:15:39.291Z,97476.41
2023-03-06T02:20:48.866Z,97471.69
2023-03-06T02:25:52.948Z,97479.97
2023-03-06T02:30:56.928Z,97493.00
2023-03-06T02:36:05.080Z,97481.47
2023-03-06T02:41:08.876Z,97481.13
2023-03-06T02:46:11.433Z,97483.41
2023-03-06T02:51:13.553Z,97487.00
2023-03-06T02:56:15.697Z,97485.00
2023-03-06T03:01:18.428Z,97477.66
2023-03-06T03:06:20.743Z,97476.34
2023-03-06T03:11:23.329Z,97486.63
2023-03-06T03:16:25.434Z,97484.63
2023-03-06T03:21:27.852Z,97482.00
2023-03-06T03:26:30.910Z,97485.25
2023-03-06T03:31:42.125Z,97472.44
2023-03-06T03:36:45.355Z,97487.56
2023-03-06T03:41:48.741Z,97492.97
2023-03-06T03:46:51.613Z,97486.13
2023-03-06T03:51:57.137Z,97489.03
2023-03-06T03:57:01.964Z,97493.94
2023-03-06T04:02:08.729Z,97489.53
2023-03-06T04:07:18.802Z,97491.59
2023-03-06T04:12:21.216Z,97497.44
2023-03-06T04:17:23.482Z,97490.41
2023-03-06T04:22:27.320Z,97500.16
2023-03-06T04:27:29.559Z,97493.00
2023-03-06T04:32:31.967Z,97490.56
2023-03-06T04:37:35.020Z,97494.34
2023-03-06T04:42:37.407Z,97495.31
2023-03-06T04:47:40.053Z,97490.81
2023-03-06T04:52:42.133Z,97503.38
2023-03-06T04:57:46.625Z,97496.59
2023-03-06T05:02:50.229Z,97498.69
2023-03-06T05:07:53.382Z,97500.63
2023-03-06T05:12:55.419Z,97503.25
2023-03-06T05:17:57.433Z,97508.13
2023-03-06T05:22:59.601Z,97516.31
2023-03-06T05:28:01.746Z,97512.09
2023-03-06T05:33:04.041Z,97504.78
2023-03-06T05:38:06.107Z,97511.03
2023-03-06T05:43:08.560Z,97522.44
2023-03-06T05:48:12.941Z,97520.69
2023-03-06T05:53:14.969Z,97523.94
2023-03-06T05:58:17.007Z,97506.97
2023-03-06T06:03:20.122Z,97525.88
2023-03-06T06:08:22.348Z,97527.81
2023-03-06T06:13:24.480Z,97529.63
2023-03-06T06:18:26.686Z,97534.50
2023-03-06T06:23:28.782Z,97537.41
2023-03-06T06:28:31.194Z,97534.47
2023-03-06T06:33:33.199Z,97530.75
2023-03-06T06:38:35.271Z,97532.03
2023-03-06T06:43:37.368Z,97535.06
2023-03-06T06:48:39.498Z,97542.84
2023-03-06T06:53:41.702Z,97545.84
2023-03-06T06:58:43.821Z,97550.81
2023-03-06T07:03:45.921Z,97549.00
2023-03-06T07:08:47.954Z,97553.88
2023-03-06T07:13:49.984Z,97534.38
2023-03-06T07:18:52.047Z,97537.56
2023-03-06T07:23:55.355Z,97516.84
2023-03-06T07:28:57.426Z,97542.88
2023-03-06T07:33:59.593Z,97551.69
2023-03-06T07:39:01.893Z,97548.69
2023-03-06T07:44:04.037Z,97549.75
2023-03-06T07:49:06.211Z,97556.09
2023-03-06T07:54:08.576Z,97559.91
2023-03-06T07:59:12.051Z,97566.00
2023-03-06T08:04:14.246Z,97568.28
2023-03-06T08:09:16.416Z,97573.41
2023-03-06T08:14:18.457Z,97566.81
2023-03-06T08:19:20.668Z,97570.97
2023-03-06T08:24:22.865Z,97550.94
2023-03-06T08:29:24.848Z,97561.53
2023-03-06T08:34:27.034Z,97561.28
2023-03-06T08:39:28.888Z,97564.38
2023-03-06T08:44:31.043Z,97558.13
2023-03-06T08:49:33.278Z,97568.50
2023-03-06T08:54:35.993Z,97571.03
2023-03-06T08:59:38.192Z,97569.06
2023-03-06T09:04:40.423Z,97575.72
2023-03-06T09:09:42.820Z,97579.28
2023-03-06T09:14:45.013Z,97592.41
2023-03-06T09:19:47.172Z,97576.06
2023-03-06T09:24:50.805Z,97579.19
2023-03-06T09:29:52.787Z,97578.16
2023-03-06T09:34:54.640Z,97581.53
2023-03-06T09:39:57.853Z,97582.47
2023-03-06T09:45:02.374Z,97587.78
2023-03-06T09:50:22.316Z,97601.47
2023-03-06T09:55:31.352Z,97589.19
2023-03-06T10:00:48.589Z,97592.41
2023-03-06T10:05:57.479Z,97609.06
2023-03-06T10:11:04.387Z,97594.22
2023-03-06T10:16:28.004Z,97596.38
2023-03-06T10:22:19.549Z,97604.19
2023-03-06T10:27:34.799Z,97600.44
2023-03-06T10:32:49.774Z,97598.97
2023-03-06T10:38:05.449Z,97605.22
2023-03-06T10:43:12.478Z,97586.19
2023-03-06T10:48:20.079Z,97595.94
2023-03-06T10:53:31.196Z,97595.34
2023-03-06T10:58:33.273Z,97587.44
2023-03-06T11:03:36.773Z,97619.53
2023-03-06T11:08:40.710Z,97604.75
2023-03-06T11:13:44.648Z,97581.97
2023-03-06T11:19:07.214Z,97618.22
2023-03-06T11:24:20.169Z,97608.09
2023-03-06T11:29:22.078Z,97607.56
2023-03-06T11:34:54.362Z,97607.25
2023-03-06T11:40:11.216Z,97595.19
2023-03-06T11:45:29.200Z,97610.03
2023-03-06T11:50:39.252Z,97612.09
2023-03-06T11:55:53.415Z,97617.22
2023-03-06T12:01:22.412Z,97617.38
2023-03-06T12:06:58.544Z,97614.50
2023-03-06T12:12:37.758Z,97625.31
2023-03-06T12:17:56.469Z,97615.13
2023-03-06T12:23:26.236Z,97618.19
2023-03-06T12:28:57.148Z,97630.72
2023-03-06T12:34:14.368Z,97629.81
2023-03-06T12:39:43.027Z,97638.19
2023-03-06T12:44:47.885Z,97630.97
2023-03-06T12:49:56.823Z,97636.25
2023-03-06T12:55:01.457Z,97626.13
2023-03-06T13:00:03.959Z,97608.25
2023-03-06T13:05:25.978Z,97632.41
2023-03-06T13:10:30.705Z,97630.06
2023-03-06T13:15:35.470Z,97639.06
2023-03-06T13:20:37.979Z,97649.38
2023-03-06T13:25:49.067Z,97639.31
2023-03-06T13:30:52.976Z,97645.72
2023-03-06T13:35:57.334Z,97651.41
2023-03-06T13:41:20.855Z,97656.03
2023-03-06T13:46:35.390Z,97659.78
2023-03-06T13:51:54.103Z,97661.97
2023-03-06T13:57:23.652Z,97677.59
2023-03-06T14:02:56.667Z,97680.44
2023-03-06T14:08:11.083Z,97691.19
2023-03-06T14:13:45.464Z,97681.19
2023-03-06T14:18:51.594Z,97669.41
2023-03-06T14:24:02.461Z,97695.09
2023-03-06T14:29:04.502Z,97702.34
2023-03-06T14:34:21.092Z,97702.09
2023-03-06T14:39:34.589Z,97703.88
2023-03-06T14:44:36.612Z,97716.63
2023-03-06T14:49:38.625Z,97717.63
2023-03-06T14:54:44.989Z,97727.56
2023-03-06T14:59:58.414Z,97730.91
2023-03-06T15:05:17.380Z,97737.66
2023-03-06T15:10:31.040Z,97741.94
2023-03-06T15:15:33.154Z,97746.84
2023-03-06T15:20:44.613Z,97740.00
2023-03-06T15:26:01.328Z,97752.09
2023-03-06T15:31:21.179Z,97763.34
2023-03-06T15:36:29.745Z,97779.81
2023-03-06T15:41:35.744Z,97789.38
2023-03-06T15:46:39.183Z,97801.69
2023-03-06T15:51:41.254Z,97805.72
2023-03-06T15:56:46.252Z,97803.41
2023-03-06T16:01:48.972Z,97812.19
2023-03-06T16:06:50.996Z,97785.66
2023-03-06T16:11:53.101Z,97818.16
2023-03-06T16:16:55.469Z,97828.44
2023-03-06T16:21:57.545Z,97807.19
2023-03-06T16:27:01.643Z,97841.00
2023-03-06T16:32:04.609Z,97851.53
2023-03-06T16:37:09.553Z,97852.53
2023-03-06T16:42:11.622Z,97858.63
2023-03-06T16:47:13.666Z,97854.63
2023-03-06T16:52:16.411Z,97868.47
2023-03-06T16:57:18.509Z,97864.25
2023-03-06T17:02:20.637Z,97846.97
2023-03-06T17:07:22.809Z,97878.28
2023-03-06T17:12:24.900Z,97888.88
2023-03-06T17:17:27.141Z,97892.72
2023-03-06T17:22:29.305Z,97895.66
2023-03-06T17:27:31.352Z,97891.84
2023-03-06T17:32:33.746Z,97907.09
2023-03-06T17:37:36.122Z,97912.88
2023-03-06T17:42:38.332Z,97924.50
2023-03-06T17:47:40.373Z,97918.03
2023-03-06T17:52:42.422Z,97928.22
2023-03-06T17:57:44.527Z,97928.50
2023-03-06T18:02:47.031Z,97942.81
2023-03-06T18:07:49.125Z,97937.88
2023-03-06T18:12:51.438Z,97946.28
2023-03-06T18:17:53.466Z,97942.16
2023-03-06T18:22:55.587Z,97943.41
2023-03-06T18:27:58.131Z,97945.53
2023-03-06T18:33:00.292Z,97947.31
2023-03-06T18:38:03.091Z,97952.94
2023-03-06T18:43:05.180Z,97953.22
2023-03-06T18:48:07.311Z,97958.03
2023-03-06T18:53:09.315Z,97954.31
2023-03-06T18:58:11.329Z,97957.84
2023-03-06T19:03:14.601Z,97965.53
2023-03-06T19:08:17.894Z,97967.25
2023-03-06T19:13:20.030Z,97969.16
2023-03-06T19:18:22.125Z,97968.03
2023-03-06T19:23:24.365Z,97975.84
2023-03-06T19:28:27.884Z,97964.34
2023-03-06T19:33:30.013Z,97979.56
2023-03-06T19:38:32.170Z,97973.56
2023-03-06T19:43:34.266Z,97975.28
2023-03-06T19:48:36.304Z,97985.13
2023-03-06T19:53:39.934Z,97983.31
2023-03-06T19:58:42.705Z,97982.63
2023-03-06T20:03:44.932Z,97986.38
2023-03-06T20:08:47.687Z,97992.97
2023-03-06T20:13:49.901Z,97992.88
2023-03-06T20:18:52.001Z,97990.97
2023-03-06T20:23:57.023Z,97994.13
2023-03-06T20:28:59.375Z,97986.72
2023-03-06T20:34:02.345Z,97992.78
2023-03-06T20:39:07.798Z,97991.78
2023-03-06T20:44:16.515Z,97994.38
2023-03-06T20:49:19.383Z,97987.53
2023-03-06T20:54:21.480Z,97993.28
2023-03-06T20:59:24.025Z,98004.13
2023-03-06T21:04:26.166Z,97996.06
2023-03-06T21:09:28.425Z,97997.03
2023-03-06T21:14:30.663Z,97969.94
2023-03-06T21:19:32.730Z,97997.00
2023-03-06T21:24:36.078Z,98003.00
2023-03-06T21:29:38.237Z,98002.06
2023-03-06T21:34:40.426Z,98002.88
2023-03-06T21:39:42.470Z,98002.06
2023-03-06T21:44:44.772Z,98008.06
2023-03-06T21:49:49.541Z,98005.00
2023-03-06T21:54:51.677Z,98015.97
2023-03-06T21:59:53.883Z,98017.09
2023-03-06T22:04:55.917Z,98015.56
2023-03-06T22:09:57.986Z,98018.31
2023-03-06T22:15:00.239Z,98003.78
2023-03-06T22:20:02.833Z,98016.13
2023-03-06T22:25:06.036Z,98005.72
2023-03-06T22:30:09.047Z,98003.50
2023-03-06T22:35:11.152Z,98011.44
2023-03-06T22:40:13.380Z,98006.22
2023-03-06T22:45:15.484Z,98007.34
2023-03-06T22:50:18.456Z,98004.44
2023-03-06T22:55:20.514Z,97995.94
2023-03-06T23:00:22.644Z,98001.78
2023-03-06T23:05:24.737Z,98001.50
2023-03-06T23:10:26.809Z,97990.41
2023-03-06T23:15:47.721Z,98002.31
2023-03-06T23:21:14.175Z,98004.78
2023-03-06T23:26:35.562Z,97988.63
2023-03-06T23:31:37.623Z,97996.44
2023-03-06T23:36:39.730Z,97990.25
2023-03-06T23:41:41.727Z,97988.75
2023-03-06T23:46:43.829Z,97986.97
2023-03-06T23:51:45.836Z,97990.13
2023-03-06T23:56:47.830Z,97988.34
